Saint Petersburg, FL

3:17 PM EDT on October 30, 2014 (GMT -0400)
Saint Petersburg-Clearwater International | Change Station
CLOSE
Current Station
Airport
Location: St. Petersburg Airport,
Elevation: 10 ft
Nearby Weather Stations

Elev 10 ft 27.91 °N, 82.69 °W | Updated 24 minutes ago

Mostly Cloudy
Mostly Cloudy
78 °F
Feels Like 78 °F
N
4
Wind Variable Wind from North

Today
High -- | Low -- °F
--% Chance of Precip.
Yesterday
High -- | Low -- °F
Precip. -- in
7:40 AM 6:47 PM
Waxing Crescent, 46% visible
Pressure 29.91 in
Visibility 10.0 miles
Clouds Few 3700 ft
Scattered Clouds 6000 ft
Mostly Cloudy 9500 ft
Dew Point 65 °F
Humidity 64%
Rainfall 0.00 in
Snow Depth Not available.
UV 4 out of 12
Pollen 4.10 out of 12
Air Quality Not available.
Flu Activity Not available.
METAR KPIE 301853Z 36003KT 10SM FEW037 SCT060 BKN095 26/18 A2991 RMK AO2 SLP127 T02560183

More Conditions Fewer Conditions

Pressure 29.91 in
Visibility 10.0 miles
Clouds Few 3700 ft
Scattered Clouds 6000 ft
Mostly Cloudy 9500 ft
Dew Point 65 °F
Humidity 64%
Rainfall 0.00 in
Snow Depth Not available.
UV 4 out of 12
Pollen 4.10 out of 12
Air Quality Not available.
Flu Activity Not available.
METAR KPIE 301853Z 36003KT 10SM FEW037 SCT060 BKN095 26/18 A2991 RMK AO2 SLP127 T02560183

More Conditions Fewer Conditions

10-Day Weather Forecast

Almanac

Astronomy

Oct. 30, 2014 Rise Set
Actual Time
Civil Twilight
Nautical Twilight
Astronomical Twilight
Moon
Length of Visible Light
Length of Day
Tomorrow will be .
, % of the Moon is Illuminated

Today's Extremes

State Highs State Lows

Community

WunderPhotos

Upload Photos

1,766,451 photos uploaded!

WunderBlogs® & News

Nearby

Air Quality

  Air Quality AQ Index Pollutant
Not available.

Snow Depth

Station Depth Elevation

Earthquake Activity

City Distance Mag. Time & Date
Minimum magnitude displayed is 2.5.

Coastal Water Temperatures

Place Temperature

Nearby Weather Stations